Terminal Aerodrome Forecast
Issued by NWS

Home | Current Version | Previous Version | Text Only | Print | Product List | Glossary On
Versions: 1 2 3 4 5 6 7 8 9 10 11 12 13 14 15
000
FTUS44 KOUN 231721
TAFPNC
TAF
KPNC 231721Z 2318/2418 16017G22KT P6SM SKC
     FM240100 16017G25KT P6SM BKN120 PROB30 2404/2408 3SM TSRA
      BKN040CB
     FM241200 29014KT P6SM BKN020
     FM241400 32020G30KT P6SM SCT025=

USA.gov is the U.S. government's official web portal to all federal, state and local government web resources and services.